sensor_id;sensor_type;location;lat;lon;timestamp;temperature;humidity
21216;DHT22;10765;50.954;5.322;2023-09-18T00:01:47;19.70;1.00
21216;DHT22;10765;50.954;5.322;2023-09-18T00:04:14;19.70;99.90
21216;DHT22;10765;50.954;5.322;2023-09-18T00:06:42;19.80;1.00
21216;DHT22;10765;50.954;5.322;2023-09-18T00:09:09;19.70;1.00
21216;DHT22;10765;50.954;5.322;2023-09-18T00:11:39;19.60;99.90
21216;DHT22;10765;50.954;5.322;2023-09-18T00:14:07;19.60;99.90
21216;DHT22;10765;50.954;5.322;2023-09-18T00:16:36;19.60;1.00
21216;DHT22;10765;50.954;5.322;2023-09-18T00:19:03;19.50;1.00
21216;DHT22;10765;50.954;5.322;2023-09-18T00:21:33;19.50;99.90
21216;DHT22;10765;50.954;5.322;2023-09-18T00:24:00;19.50;1.00
21216;DHT22;10765;50.954;5.322;2023-09-18T00:26:28;19.60;99.90
21216;DHT22;10765;50.954;5.322;2023-09-18T00:28:55;19.70;1.00
21216;DHT22;10765;50.954;5.322;2023-09-18T00:31:22;19.70;1.00
21216;DHT22;10765;50.954;5.322;2023-09-18T00:33:50;19.80;1.00
21216;DHT22;10765;50.954;5.322;2023-09-18T00:36:17;19.70;99.90
21216;DHT22;10765;50.954;5.322;2023-09-18T00:38:43;19.60;1.00
21216;DHT22;10765;50.954;5.322;2023-09-18T00:41:12;19.70;69.20
21216;DHT22;10765;50.954;5.322;2023-09-18T00:43:38;19.70;99.90
21216;DHT22;10765;50.954;5.322;2023-09-18T00:46:05;19.70;1.00
21216;DHT22;10765;50.954;5.322;2023-09-18T00:48:33;19.70;99.90
21216;DHT22;10765;50.954;5.322;2023-09-18T00:51:02;19.80;99.90
21216;DHT22;10765;50.954;5.322;2023-09-18T00:53:29;19.80;1.00
21216;DHT22;10765;50.954;5.322;2023-09-18T00:55:57;19.90;99.90
21216;DHT22;10765;50.954;5.322;2023-09-18T00:58:26;19.80;1.00
21216;DHT22;10765;50.954;5.322;2023-09-18T01:00:53;19.70;22.50
21216;DHT22;10765;50.954;5.322;2023-09-18T01:03:21;19.70;1.00
21216;DHT22;10765;50.954;5.322;2023-09-18T01:05:50;19.70;1.00
21216;DHT22;10765;50.954;5.322;2023-09-18T01:08:19;19.70;1.00
21216;DHT22;10765;50.954;5.322;2023-09-18T01:10:52;19.80;97.50
21216;DHT22;10765;50.954;5.322;2023-09-18T01:13:23;19.70;82.30
21216;DHT22;10765;50.954;5.322;2023-09-18T01:16:00;19.80;99.90
21216;DHT22;10765;50.954;5.322;2023-09-18T01:18:29;19.70;99.90
21216;DHT22;10765;50.954;5.322;2023-09-18T01:20:56;19.70;99.90
21216;DHT22;10765;50.954;5.322;2023-09-18T01:23:24;19.70;99.90
21216;DHT22;10765;50.954;5.322;2023-09-18T01:25:51;19.70;99.90
21216;DHT22;10765;50.954;5.322;2023-09-18T01:28:18;19.80;1.00
21216;DHT22;10765;50.954;5.322;2023-09-18T01:30:45;19.80;1.00
21216;DHT22;10765;50.954;5.322;2023-09-18T01:33:12;19.90;99.90
21216;DHT22;10765;50.954;5.322;2023-09-18T01:35:40;20.00;14.50
21216;DHT22;10765;50.954;5.322;2023-09-18T01:38:08;20.00;58.00
21216;DHT22;10765;50.954;5.322;2023-09-18T01:40:38;20.10;99.90
21216;DHT22;10765;50.954;5.322;2023-09-18T01:43:05;20.10;6.00
21216;DHT22;10765;50.954;5.322;2023-09-18T01:45:32;20.10;1.00
21216;DHT22;10765;50.954;5.322;2023-09-18T01:47:59;20.00;41.40
21216;DHT22;10765;50.954;5.322;2023-09-18T01:50:26;20.10;99.90
21216;DHT22;10765;50.954;5.322;2023-09-18T01:52:53;20.10;99.90
21216;DHT22;10765;50.954;5.322;2023-09-18T01:55:20;20.20;99.90
21216;DHT22;10765;50.954;5.322;2023-09-18T01:57:48;20.20;1.00
21216;DHT22;10765;50.954;5.322;2023-09-18T02:00:16;20.20;1.00
21216;DHT22;10765;50.954;5.322;2023-09-18T02:02:43;20.30;1.00
21216;DHT22;10765;50.954;5.322;2023-09-18T02:05:10;20.50;1.00
21216;DHT22;10765;50.954;5.322;2023-09-18T02:07:37;20.50;1.00
21216;DHT22;10765;50.954;5.322;2023-09-18T02:10:05;20.60;1.00
21216;DHT22;10765;50.954;5.322;2023-09-18T02:12:32;20.70;99.90
21216;DHT22;10765;50.954;5.322;2023-09-18T02:15:00;20.70;1.00
21216;DHT22;10765;50.954;5.322;2023-09-18T02:17:31;20.70;99.90
21216;DHT22;10765;50.954;5.322;2023-09-18T02:19:58;20.60;99.90
21216;DHT22;10765;50.954;5.322;2023-09-18T02:22:26;20.50;1.00
21216;DHT22;10765;50.954;5.322;2023-09-18T02:24:53;20.50;1.00
21216;DHT22;10765;50.954;5.322;2023-09-18T02:27:20;20.50;1.00
21216;DHT22;10765;50.954;5.322;2023-09-18T02:29:47;20.40;99.90
21216;DHT22;10765;50.954;5.322;2023-09-18T02:32:17;20.30;1.00
21216;DHT22;10765;50.954;5.322;2023-09-18T02:34:44;20.30;99.90
21216;DHT22;10765;50.954;5.322;2023-09-18T02:37:11;20.30;18.80
21216;DHT22;10765;50.954;5.322;2023-09-18T02:39:37;20.10;1.00
21216;DHT22;10765;50.954;5.322;2023-09-18T02:42:05;19.90;1.00
21216;DHT22;10765;50.954;5.322;2023-09-18T02:44:31;19.70;1.00
21216;DHT22;10765;50.954;5.322;2023-09-18T02:46:58;19.60;99.90
21216;DHT22;10765;50.954;5.322;2023-09-18T02:49:26;19.40;1.00
21216;DHT22;10765;50.954;5.322;2023-09-18T02:51:55;19.50;99.90
21216;DHT22;10765;50.954;5.322;2023-09-18T02:54:22;19.50;99.90
21216;DHT22;10765;50.954;5.322;2023-09-18T02:56:49;19.40;99.90
21216;DHT22;10765;50.954;5.322;2023-09-18T02:59:15;19.40;99.90
21216;DHT22;10765;50.954;5.322;2023-09-18T03:01:42;19.30;99.90
21216;DHT22;10765;50.954;5.322;2023-09-18T03:04:09;19.30;99.90
21216;DHT22;10765;50.954;5.322;2023-09-18T03:06:39;19.30;99.90
21216;DHT22;10765;50.954;5.322;2023-09-18T03:09:06;19.30;99.90
21216;DHT22;10765;50.954;5.322;2023-09-18T03:11:33;19.30;99.90
21216;DHT22;10765;50.954;5.322;2023-09-18T03:14:00;19.20;99.90
21216;DHT22;10765;50.954;5.322;2023-09-18T03:16:27;19.20;99.90
21216;DHT22;10765;50.954;5.322;2023-09-18T03:18:55;19.20;99.90
21216;DHT22;10765;50.954;5.322;2023-09-18T03:21:22;19.10;99.90
21216;DHT22;10765;50.954;5.322;2023-09-18T03:23:50;19.10;99.90
21216;DHT22;10765;50.954;5.322;2023-09-18T03:26:17;19.10;99.90
21216;DHT22;10765;50.954;5.322;2023-09-18T03:28:43;19.10;99.90
21216;DHT22;10765;50.954;5.322;2023-09-18T03:31:11;19.00;99.90
21216;DHT22;10765;50.954;5.322;2023-09-18T03:33:38;18.90;99.90
21216;DHT22;10765;50.954;5.322;2023-09-18T03:36:05;18.90;99.90
21216;DHT22;10765;50.954;5.322;2023-09-18T03:38:33;19.00;99.90
21216;DHT22;10765;50.954;5.322;2023-09-18T03:41:02;18.90;99.90
21216;DHT22;10765;50.954;5.322;2023-09-18T03:43:29;18.80;99.90
21216;DHT22;10765;50.954;5.322;2023-09-18T03:46:03;18.90;99.90
21216;DHT22;10765;50.954;5.322;2023-09-18T03:48:30;18.90;99.90
21216;DHT22;10765;50.954;5.322;2023-09-18T03:51:01;18.90;99.90
21216;DHT22;10765;50.954;5.322;2023-09-18T03:53:28;18.90;99.90
21216;DHT22;10765;50.954;5.322;2023-09-18T03:55:55;18.80;99.90
21216;DHT22;10765;50.954;5.322;2023-09-18T03:58:24;18.90;99.90
21216;DHT22;10765;50.954;5.322;2023-09-18T04:00:50;18.90;99.90
21216;DHT22;10765;50.954;5.322;2023-09-18T04:03:17;19.00;99.90
21216;DHT22;10765;50.954;5.322;2023-09-18T04:05:44;19.00;99.90
21216;DHT22;10765;50.954;5.322;2023-09-18T04:08:11;19.00;99.90
21216;DHT22;10765;50.954;5.322;2023-09-18T04:10:38;19.10;99.90
21216;DHT22;10765;50.954;5.322;2023-09-18T04:13:05;19.10;99.90
21216;DHT22;10765;50.954;5.322;2023-09-18T04:15:34;19.20;99.90
21216;DHT22;10765;50.954;5.322;2023-09-18T04:18:03;19.20;99.90
21216;DHT22;10765;50.954;5.322;2023-09-18T04:20:30;19.20;99.90
21216;DHT22;10765;50.954;5.322;2023-09-18T04:23:25;19.30;99.90
21216;DHT22;10765;50.954;5.322;2023-09-18T04:25:53;19.20;9.10
21216;DHT22;10765;50.954;5.322;2023-09-18T04:28:22;19.20;99.90
21216;DHT22;10765;50.954;5.322;2023-09-18T04:30:51;19.20;32.30
21216;DHT22;10765;50.954;5.322;2023-09-18T04:33:19;19.20;1.00
21216;DHT22;10765;50.954;5.322;2023-09-18T04:35:47;19.20;1.00
21216;DHT22;10765;50.954;5.322;2023-09-18T04:38:14;19.20;1.00
21216;DHT22;10765;50.954;5.322;2023-09-18T04:40:42;19.20;1.00
21216;DHT22;10765;50.954;5.322;2023-09-18T04:43:09;19.20;1.00
21216;DHT22;10765;50.954;5.322;2023-09-18T04:45:36;19.20;1.00
21216;DHT22;10765;50.954;5.322;2023-09-18T04:48:05;19.20;1.00
21216;DHT22;10765;50.954;5.322;2023-09-18T04:50:33;19.20;99.90
21216;DHT22;10765;50.954;5.322;2023-09-18T04:53:00;19.30;99.90
21216;DHT22;10765;50.954;5.322;2023-09-18T04:55:29;19.30;99.90
21216;DHT22;10765;50.954;5.322;2023-09-18T04:57:56;19.30;1.00
21216;DHT22;10765;50.954;5.322;2023-09-18T05:00:24;19.40;99.90
21216;DHT22;10765;50.954;5.322;2023-09-18T05:02:52;19.40;99.90
21216;DHT22;10765;50.954;5.322;2023-09-18T05:05:20;19.40;99.90
21216;DHT22;10765;50.954;5.322;2023-09-18T05:07:47;19.40;1.00
21216;DHT22;10765;50.954;5.322;2023-09-18T05:10:14;19.30;1.00
21216;DHT22;10765;50.954;5.322;2023-09-18T05:12:42;19.20;99.90
21216;DHT22;10765;50.954;5.322;2023-09-18T05:15:09;19.20;1.00
21216;DHT22;10765;50.954;5.322;2023-09-18T05:17:42;19.10;1.00
21216;DHT22;10765;50.954;5.322;2023-09-18T05:20:10;19.10;1.00
21216;DHT22;10765;50.954;5.322;2023-09-18T05:22:40;19.10;1.00
21216;DHT22;10765;50.954;5.322;2023-09-18T05:25:08;19.10;1.00
21216;DHT22;10765;50.954;5.322;2023-09-18T05:27:35;19.00;38.30
21216;DHT22;10765;50.954;5.322;2023-09-18T05:30:10;19.10;1.00
21216;DHT22;10765;50.954;5.322;2023-09-18T05:32:38;19.00;1.00
21216;DHT22;10765;50.954;5.322;2023-09-18T05:35:05;19.00;1.00
21216;DHT22;10765;50.954;5.322;2023-09-18T05:37:35;19.00;99.90
21216;DHT22;10765;50.954;5.322;2023-09-18T05:40:05;19.00;99.90
21216;DHT22;10765;50.954;5.322;2023-09-18T05:42:35;19.10;99.90
21216;DHT22;10765;50.954;5.322;2023-09-18T05:45:02;19.00;99.90
21216;DHT22;10765;50.954;5.322;2023-09-18T05:47:30;19.10;1.00
21216;DHT22;10765;50.954;5.322;2023-09-18T05:49:57;19.10;1.00
21216;DHT22;10765;50.954;5.322;2023-09-18T05:52:24;19.10;99.90
21216;DHT22;10765;50.954;5.322;2023-09-18T05:54:51;19.10;1.00
21216;DHT22;10765;50.954;5.322;2023-09-18T05:57:19;19.10;1.00
21216;DHT22;10765;50.954;5.322;2023-09-18T05:59:46;19.10;99.90
21216;DHT22;10765;50.954;5.322;2023-09-18T06:02:13;19.10;99.90
21216;DHT22;10765;50.954;5.322;2023-09-18T06:04:42;19.10;1.00
21216;DHT22;10765;50.954;5.322;2023-09-18T06:07:09;19.10;1.00
21216;DHT22;10765;50.954;5.322;2023-09-18T06:09:37;19.10;1.00
21216;DHT22;10765;50.954;5.322;2023-09-18T06:12:04;19.20;99.90
21216;DHT22;10765;50.954;5.322;2023-09-18T06:14:33;19.20;1.00
21216;DHT22;10765;50.954;5.322;2023-09-18T06:17:00;19.30;1.00
21216;DHT22;10765;50.954;5.322;2023-09-18T06:19:27;19.30;99.90
21216;DHT22;10765;50.954;5.322;2023-09-18T06:21:54;19.40;99.90
21216;DHT22;10765;50.954;5.322;2023-09-18T06:24:21;19.50;1.00
21216;DHT22;10765;50.954;5.322;2023-09-18T06:26:48;19.50;99.90
21216;DHT22;10765;50.954;5.322;2023-09-18T06:29:16;19.50;1.00
21216;DHT22;10765;50.954;5.322;2023-09-18T06:31:44;19.50;1.00
21216;DHT22;10765;50.954;5.322;2023-09-18T06:34:12;19.50;18.20
21216;DHT22;10765;50.954;5.322;2023-09-18T06:36:39;19.60;99.90
21216;DHT22;10765;50.954;5.322;2023-09-18T06:39:06;19.70;99.90
21216;DHT22;10765;50.954;5.322;2023-09-18T06:41:33;19.70;1.00
21216;DHT22;10765;50.954;5.322;2023-09-18T06:44:01;19.70;1.00
21216;DHT22;10765;50.954;5.322;2023-09-18T06:46:29;19.70;1.00
21216;DHT22;10765;50.954;5.322;2023-09-18T06:48:58;19.70;99.90
21216;DHT22;10765;50.954;5.322;2023-09-18T06:51:26;19.60;99.90
21216;DHT22;10765;50.954;5.322;2023-09-18T06:53:54;19.60;99.90
21216;DHT22;10765;50.954;5.322;2023-09-18T06:56:22;19.70;99.90
21216;DHT22;10765;50.954;5.322;2023-09-18T06:58:49;19.70;99.90
21216;DHT22;10765;50.954;5.322;2023-09-18T07:01:17;19.80;23.60
21216;DHT22;10765;50.954;5.322;2023-09-18T07:03:45;19.70;1.00
21216;DHT22;10765;50.954;5.322;2023-09-18T07:06:14;19.70;99.90
21216;DHT22;10765;50.954;5.322;2023-09-18T07:08:42;19.70;99.90
21216;DHT22;10765;50.954;5.322;2023-09-18T07:11:09;19.80;1.00
21216;DHT22;10765;50.954;5.322;2023-09-18T07:13:35;19.90;1.00
21216;DHT22;10765;50.954;5.322;2023-09-18T07:16:02;19.90;99.90
21216;DHT22;10765;50.954;5.322;2023-09-18T07:18:29;20.00;99.90
21216;DHT22;10765;50.954;5.322;2023-09-18T07:20:56;20.10;99.90
21216;DHT22;10765;50.954;5.322;2023-09-18T07:23:24;20.10;99.90
21216;DHT22;10765;50.954;5.322;2023-09-18T07:25:51;20.00;99.90
21216;DHT22;10765;50.954;5.322;2023-09-18T07:28:18;20.20;99.90
21216;DHT22;10765;50.954;5.322;2023-09-18T07:30:45;20.20;26.90
21216;DHT22;10765;50.954;5.322;2023-09-18T07:33:13;20.30;1.00
21216;DHT22;10765;50.954;5.322;2023-09-18T07:35:45;20.60;1.00
21216;DHT22;10765;50.954;5.322;2023-09-18T07:38:13;20.70;99.90
21216;DHT22;10765;50.954;5.322;2023-09-18T07:40:42;20.70;1.00
21216;DHT22;10765;50.954;5.322;2023-09-18T07:43:09;20.70;99.90
21216;DHT22;10765;50.954;5.322;2023-09-18T07:45:38;20.70;99.90
21216;DHT22;10765;50.954;5.322;2023-09-18T07:48:06;20.70;99.90
21216;DHT22;10765;50.954;5.322;2023-09-18T07:50:34;20.60;99.90
21216;DHT22;10765;50.954;5.322;2023-09-18T07:53:00;20.60;99.90
21216;DHT22;10765;50.954;5.322;2023-09-18T07:55:28;20.70;99.90
21216;DHT22;10765;50.954;5.322;2023-09-18T07:57:56;20.90;99.90
21216;DHT22;10765;50.954;5.322;2023-09-18T08:00:24;21.20;99.90
21216;DHT22;10765;50.954;5.322;2023-09-18T08:02:54;21.20;99.90
21216;DHT22;10765;50.954;5.322;2023-09-18T08:05:24;22.10;92.50
21216;DHT22;10765;50.954;5.322;2023-09-18T08:07:53;22.70;1.00
21216;DHT22;10765;50.954;5.322;2023-09-18T08:10:21;23.00;1.00
21216;DHT22;10765;50.954;5.322;2023-09-18T08:12:48;23.20;1.00
21216;DHT22;10765;50.954;5.322;2023-09-18T08:15:19;23.30;1.00
21216;DHT22;10765;50.954;5.322;2023-09-18T08:17:46;22.90;1.00
21216;DHT22;10765;50.954;5.322;2023-09-18T08:20:14;22.50;1.00
21216;DHT22;10765;50.954;5.322;2023-09-18T08:22:41;22.20;1.00
21216;DHT22;10765;50.954;5.322;2023-09-18T08:25:09;22.50;1.00
21216;DHT22;10765;50.954;5.322;2023-09-18T08:27:37;22.80;1.00
21216;DHT22;10765;50.954;5.322;2023-09-18T08:30:08;23.10;1.00
21216;DHT22;10765;50.954;5.322;2023-09-18T08:32:37;24.00;1.00
21216;DHT22;10765;50.954;5.322;2023-09-18T08:35:05;24.90;1.00
21216;DHT22;10765;50.954;5.322;2023-09-18T08:37:32;25.30;99.90
21216;DHT22;10765;50.954;5.322;2023-09-18T08:39:59;25.50;99.90
21216;DHT22;10765;50.954;5.322;2023-09-18T08:42:27;26.80;99.90
21216;DHT22;10765;50.954;5.322;2023-09-18T08:44:57;25.80;99.90
21216;DHT22;10765;50.954;5.322;2023-09-18T08:47:25;26.30;99.90
21216;DHT22;10765;50.954;5.322;2023-09-18T08:49:55;27.60;99.90
21216;DHT22;10765;50.954;5.322;2023-09-18T08:52:24;29.30;99.90
21216;DHT22;10765;50.954;5.322;2023-09-18T08:54:53;30.20;99.90
21216;DHT22;10765;50.954;5.322;2023-09-18T08:57:21;31.40;99.90
21216;DHT22;10765;50.954;5.322;2023-09-18T08:59:50;31.40;99.90
21216;DHT22;10765;50.954;5.322;2023-09-18T09:02:17;30.50;99.90
21216;DHT22;10765;50.954;5.322;2023-09-18T09:04:44;30.60;99.90
21216;DHT22;10765;50.954;5.322;2023-09-18T09:07:12;31.70;99.90
21216;DHT22;10765;50.954;5.322;2023-09-18T09:09:40;33.00;99.90
21216;DHT22;10765;50.954;5.322;2023-09-18T09:12:08;32.70;99.90
21216;DHT22;10765;50.954;5.322;2023-09-18T09:14:35;32.70;99.90
21216;DHT22;10765;50.954;5.322;2023-09-18T09:17:03;32.70;99.90
21216;DHT22;10765;50.954;5.322;2023-09-18T09:19:33;32.80;99.90
21216;DHT22;10765;50.954;5.322;2023-09-18T09:22:04;34.10;99.90
21216;DHT22;10765;50.954;5.322;2023-09-18T09:24:40;34.00;99.90
21216;DHT22;10765;50.954;5.322;2023-09-18T09:27:07;33.80;99.90
21216;DHT22;10765;50.954;5.322;2023-09-18T09:29:35;33.60;99.90
21216;DHT22;10765;50.954;5.322;2023-09-18T09:32:15;33.40;99.90
21216;DHT22;10765;50.954;5.322;2023-09-18T09:34:43;32.80;99.90
21216;DHT22;10765;50.954;5.322;2023-09-18T09:37:12;31.10;99.90
21216;DHT22;10765;50.954;5.322;2023-09-18T09:39:51;30.00;99.90
21216;DHT22;10765;50.954;5.322;2023-09-18T09:42:19;30.30;99.90
21216;DHT22;10765;50.954;5.322;2023-09-18T09:45:00;29.50;99.90
21216;DHT22;10765;50.954;5.322;2023-09-18T09:47:27;29.60;99.90
21216;DHT22;10765;50.954;5.322;2023-09-18T09:49:55;28.70;99.90
21216;DHT22;10765;50.954;5.322;2023-09-18T09:52:22;28.40;99.90
21216;DHT22;10765;50.954;5.322;2023-09-18T09:54:51;28.30;99.90
21216;DHT22;10765;50.954;5.322;2023-09-18T09:57:18;28.10;99.90
21216;DHT22;10765;50.954;5.322;2023-09-18T09:59:45;28.80;99.90
21216;DHT22;10765;50.954;5.322;2023-09-18T10:02:12;27.90;99.90
21216;DHT22;10765;50.954;5.322;2023-09-18T10:04:45;26.70;99.90
21216;DHT22;10765;50.954;5.322;2023-09-18T10:07:15;26.20;99.90
21216;DHT22;10765;50.954;5.322;2023-09-18T10:09:45;26.00;99.90
21216;DHT22;10765;50.954;5.322;2023-09-18T10:12:18;25.60;99.90
21216;DHT22;10765;50.954;5.322;2023-09-18T10:14:47;25.20;99.90
21216;DHT22;10765;50.954;5.322;2023-09-18T10:17:17;25.40;99.90
21216;DHT22;10765;50.954;5.322;2023-09-18T10:19:49;25.40;99.90
21216;DHT22;10765;50.954;5.322;2023-09-18T10:22:24;25.60;99.90
21216;DHT22;10765;50.954;5.322;2023-09-18T10:24:57;25.30;99.90
21216;DHT22;10765;50.954;5.322;2023-09-18T10:27:28;26.60;99.90
21216;DHT22;10765;50.954;5.322;2023-09-18T10:29:57;29.90;99.90
21216;DHT22;10765;50.954;5.322;2023-09-18T10:32:27;31.70;99.90
21216;DHT22;10765;50.954;5.322;2023-09-18T10:34:54;32.60;99.90
21216;DHT22;10765;50.954;5.322;2023-09-18T10:37:22;30.50;99.90
21216;DHT22;10765;50.954;5.322;2023-09-18T10:39:50;29.30;99.90
21216;DHT22;10765;50.954;5.322;2023-09-18T10:42:19;30.90;99.90
21216;DHT22;10765;50.954;5.322;2023-09-18T10:44:48;31.80;99.90
21216;DHT22;10765;50.954;5.322;2023-09-18T10:47:16;32.60;99.90
21216;DHT22;10765;50.954;5.322;2023-09-18T10:49:43;30.80;99.90
21216;DHT22;10765;50.954;5.322;2023-09-18T10:52:11;29.50;99.90
21216;DHT22;10765;50.954;5.322;2023-09-18T10:54:39;28.20;99.90
21216;DHT22;10765;50.954;5.322;2023-09-18T10:57:06;27.90;99.90
21216;DHT22;10765;50.954;5.322;2023-09-18T10:59:33;28.40;99.90
21216;DHT22;10765;50.954;5.322;2023-09-18T11:02:04;31.50;99.90
21216;DHT22;10765;50.954;5.322;2023-09-18T11:04:32;29.80;99.90
21216;DHT22;10765;50.954;5.322;2023-09-18T11:07:02;28.10;99.90
21216;DHT22;10765;50.954;5.322;2023-09-18T11:09:32;26.60;99.90
21216;DHT22;10765;50.954;5.322;2023-09-18T11:12:06;26.00;99.90
21216;DHT22;10765;50.954;5.322;2023-09-18T11:14:42;25.80;99.90
21216;DHT22;10765;50.954;5.322;2023-09-18T11:17:33;25.40;99.90
21216;DHT22;10765;50.954;5.322;2023-09-18T11:20:08;25.20;99.90
21216;DHT22;10765;50.954;5.322;2023-09-18T11:22:38;26.50;99.90
21216;DHT22;10765;50.954;5.322;2023-09-18T11:25:31;31.80;99.90
21216;DHT22;10765;50.954;5.322;2023-09-18T11:28:01;35.40;99.90
21216;DHT22;10765;50.954;5.322;2023-09-18T11:30:29;35.70;99.90
21216;DHT22;10765;50.954;5.322;2023-09-18T11:32:57;33.10;99.90
21216;DHT22;10765;50.954;5.322;2023-09-18T11:35:25;29.10;99.90
21216;DHT22;10765;50.954;5.322;2023-09-18T11:38:05;26.80;99.90
21216;DHT22;10765;50.954;5.322;2023-09-18T11:40:33;26.10;99.90
21216;DHT22;10765;50.954;5.322;2023-09-18T11:43:23;26.00;99.90
21216;DHT22;10765;50.954;5.322;2023-09-18T11:45:52;25.80;99.90
21216;DHT22;10765;50.954;5.322;2023-09-18T11:48:21;27.20;99.90
21216;DHT22;10765;50.954;5.322;2023-09-18T11:50:49;32.50;99.90
21216;DHT22;10765;50.954;5.322;2023-09-18T11:53:17;33.40;99.90
21216;DHT22;10765;50.954;5.322;2023-09-18T11:55:45;35.10;99.90
21216;DHT22;10765;50.954;5.322;2023-09-18T11:58:12;37.00;99.90
21216;DHT22;10765;50.954;5.322;2023-09-18T12:00:40;37.00;99.90
21216;DHT22;10765;50.954;5.322;2023-09-18T12:03:21;37.20;99.90
21216;DHT22;10765;50.954;5.322;2023-09-18T12:05:57;37.00;99.90
21216;DHT22;10765;50.954;5.322;2023-09-18T12:08:25;35.30;99.90
21216;DHT22;10765;50.954;5.322;2023-09-18T12:10:53;36.00;99.90
21216;DHT22;10765;50.954;5.322;2023-09-18T12:13:20;37.70;99.90
21216;DHT22;10765;50.954;5.322;2023-09-18T12:15:47;38.10;99.90
21216;DHT22;10765;50.954;5.322;2023-09-18T12:18:15;39.00;99.90
21216;DHT22;10765;50.954;5.322;2023-09-18T12:20:48;35.90;99.90
21216;DHT22;10765;50.954;5.322;2023-09-18T12:23:15;33.60;99.90
21216;DHT22;10765;50.954;5.322;2023-09-18T12:25:45;34.80;99.90
21216;DHT22;10765;50.954;5.322;2023-09-18T12:28:13;37.10;99.90
21216;DHT22;10765;50.954;5.322;2023-09-18T12:30:42;36.70;99.90
21216;DHT22;10765;50.954;5.322;2023-09-18T12:33:09;35.90;99.90
21216;DHT22;10765;50.954;5.322;2023-09-18T12:35:38;37.00;99.90
21216;DHT22;10765;50.954;5.322;2023-09-18T12:38:16;35.40;99.90
21216;DHT22;10765;50.954;5.322;2023-09-18T12:40:45;34.60;99.90
21216;DHT22;10765;50.954;5.322;2023-09-18T12:43:13;34.00;99.90
21216;DHT22;10765;50.954;5.322;2023-09-18T12:45:42;35.40;99.90
21216;DHT22;10765;50.954;5.322;2023-09-18T12:48:12;35.50;99.90
21216;DHT22;10765;50.954;5.322;2023-09-18T12:50:40;34.60;99.90
21216;DHT22;10765;50.954;5.322;2023-09-18T12:53:09;34.70;99.90
21216;DHT22;10765;50.954;5.322;2023-09-18T12:55:37;35.60;99.90
21216;DHT22;10765;50.954;5.322;2023-09-18T12:58:04;33.30;99.90
21216;DHT22;10765;50.954;5.322;2023-09-18T13:00:33;32.10;99.90
21216;DHT22;10765;50.954;5.322;2023-09-18T13:03:01;35.40;99.90
21216;DHT22;10765;50.954;5.322;2023-09-18T13:05:30;34.80;99.90
21216;DHT22;10765;50.954;5.322;2023-09-18T13:08:02;35.30;99.90
21216;DHT22;10765;50.954;5.322;2023-09-18T13:10:29;36.80;99.90
21216;DHT22;10765;50.954;5.322;2023-09-18T13:13:16;37.10;99.90
21216;DHT22;10765;50.954;5.322;2023-09-18T13:15:43;37.40;99.90
21216;DHT22;10765;50.954;5.322;2023-09-18T13:18:11;36.80;99.90
21216;DHT22;10765;50.954;5.322;2023-09-18T13:20:40;37.00;99.90
21216;DHT22;10765;50.954;5.322;2023-09-18T13:23:08;37.70;99.90
21216;DHT22;10765;50.954;5.322;2023-09-18T13:25:36;34.90;99.90
21216;DHT22;10765;50.954;5.322;2023-09-18T13:28:05;35.70;99.90
21216;DHT22;10765;50.954;5.322;2023-09-18T13:30:36;36.40;99.90
21216;DHT22;10765;50.954;5.322;2023-09-18T13:33:06;36.40;99.90
21216;DHT22;10765;50.954;5.322;2023-09-18T13:35:33;37.20;99.90
21216;DHT22;10765;50.954;5.322;2023-09-18T13:38:01;38.90;99.90
21216;DHT22;10765;50.954;5.322;2023-09-18T13:40:28;38.90;99.90
21216;DHT22;10765;50.954;5.322;2023-09-18T13:42:55;37.00;99.90
21216;DHT22;10765;50.954;5.322;2023-09-18T13:45:22;33.70;99.90
21216;DHT22;10765;50.954;5.322;2023-09-18T13:47:50;33.30;99.90
21216;DHT22;10765;50.954;5.322;2023-09-18T13:50:17;32.00;99.90
21216;DHT22;10765;50.954;5.322;2023-09-18T13:52:44;32.80;99.90
21216;DHT22;10765;50.954;5.322;2023-09-18T13:55:11;33.50;99.90
21216;DHT22;10765;50.954;5.322;2023-09-18T13:57:38;31.60;99.90
21216;DHT22;10765;50.954;5.322;2023-09-18T14:00:07;32.70;99.90
21216;DHT22;10765;50.954;5.322;2023-09-18T14:02:37;33.80;99.90
21216;DHT22;10765;50.954;5.322;2023-09-18T14:05:07;33.60;99.90
21216;DHT22;10765;50.954;5.322;2023-09-18T14:07:34;33.40;99.90
21216;DHT22;10765;50.954;5.322;2023-09-18T14:10:02;34.80;99.90
21216;DHT22;10765;50.954;5.322;2023-09-18T14:12:29;33.90;99.90
21216;DHT22;10765;50.954;5.322;2023-09-18T14:14:57;32.20;99.90
21216;DHT22;10765;50.954;5.322;2023-09-18T14:17:25;29.70;99.90
21216;DHT22;10765;50.954;5.322;2023-09-18T14:19:52;27.80;99.90
21216;DHT22;10765;50.954;5.322;2023-09-18T14:22:20;26.50;99.90
21216;DHT22;10765;50.954;5.322;2023-09-18T14:24:47;26.30;99.90
21216;DHT22;10765;50.954;5.322;2023-09-18T14:27:14;26.00;99.90
21216;DHT22;10765;50.954;5.322;2023-09-18T14:29:41;25.50;99.90
21216;DHT22;10765;50.954;5.322;2023-09-18T14:32:08;25.50;99.90
21216;DHT22;10765;50.954;5.322;2023-09-18T14:34:35;25.70;99.90
21216;DHT22;10765;50.954;5.322;2023-09-18T14:37:02;25.90;99.90
21216;DHT22;10765;50.954;5.322;2023-09-18T14:39:31;25.70;99.90
21216;DHT22;10765;50.954;5.322;2023-09-18T14:41:58;25.40;99.90
21216;DHT22;10765;50.954;5.322;2023-09-18T14:44:26;25.20;99.90
21216;DHT22;10765;50.954;5.322;2023-09-18T14:46:54;25.20;99.90
21216;DHT22;10765;50.954;5.322;2023-09-18T14:49:21;25.20;99.90
21216;DHT22;10765;50.954;5.322;2023-09-18T14:51:48;25.00;99.90
21216;DHT22;10765;50.954;5.322;2023-09-18T14:54:18;25.10;99.90
21216;DHT22;10765;50.954;5.322;2023-09-18T14:56:46;24.90;99.90
21216;DHT22;10765;50.954;5.322;2023-09-18T14:59:13;24.80;99.90
21216;DHT22;10765;50.954;5.322;2023-09-18T15:01:40;24.70;99.90
21216;DHT22;10765;50.954;5.322;2023-09-18T15:04:09;24.80;99.90
21216;DHT22;10765;50.954;5.322;2023-09-18T15:06:36;24.90;99.90
21216;DHT22;10765;50.954;5.322;2023-09-18T15:09:03;24.90;99.90
21216;DHT22;10765;50.954;5.322;2023-09-18T15:11:30;24.80;99.90
21216;DHT22;10765;50.954;5.322;2023-09-18T15:13:58;24.50;99.90
21216;DHT22;10765;50.954;5.322;2023-09-18T15:16:25;24.50;99.90
21216;DHT22;10765;50.954;5.322;2023-09-18T15:18:52;24.60;99.90
21216;DHT22;10765;50.954;5.322;2023-09-18T15:21:19;24.50;99.90
21216;DHT22;10765;50.954;5.322;2023-09-18T15:23:46;24.70;99.90
21216;DHT22;10765;50.954;5.322;2023-09-18T15:26:15;24.60;99.90
21216;DHT22;10765;50.954;5.322;2023-09-18T15:28:43;24.70;99.90
21216;DHT22;10765;50.954;5.322;2023-09-18T15:31:11;24.90;99.90
21216;DHT22;10765;50.954;5.322;2023-09-18T15:33:38;24.90;99.90
21216;DHT22;10765;50.954;5.322;2023-09-18T15:36:06;24.80;99.90
21216;DHT22;10765;50.954;5.322;2023-09-18T15:38:33;24.50;99.90
21216;DHT22;10765;50.954;5.322;2023-09-18T15:41:00;24.40;99.90
21216;DHT22;10765;50.954;5.322;2023-09-18T15:43:27;24.30;99.90